Ash, North Carolina
Current Conditions -  °F | °C
As of 10:53 PM on Thursday 27 Nov 2014 (Local Time) from KCRE Reporting Station
Clear Clear  
Wind Chill:   Ceiling: Unl
Heat Index:   Visibility: 10mi
Dew Point:   Wind: 5mph
Humidity: 76%   Direction: 330°NNW
Pressure: 30.25"   Gusts: NA
Location:  34.04°N, 78.52°W
Report Text: KCRE 280353Z 33004KT 10SM CLR 05/01 A3025 RMK AO1 SLP245 T00500011
Loading
Personal Weather Stations






























Interactive Weather Map New forecast layout! Learn more

10-Day Weather Forecast

Advertisements
Track Severe Weather on mobile